createdAt,value
2019-01-18T00:02:22.567Z,4.30
2019-01-18T00:04:52.271Z,4.30
2019-01-18T00:07:22.044Z,4.30
2019-01-18T00:09:51.822Z,4.40
2019-01-18T00:12:21.641Z,4.50
2019-01-18T00:14:51.406Z,4.50
2019-01-18T00:17:21.127Z,4.60
2019-01-18T00:19:50.722Z,4.70
2019-01-18T00:22:21.450Z,4.70
2019-01-18T00:24:51.251Z,4.80
2019-01-18T00:27:20.977Z,4.80
2019-01-18T00:29:50.707Z,4.80
2019-01-18T00:32:20.456Z,4.70
2019-01-18T00:34:50.306Z,4.80
2019-01-18T00:37:20.173Z,4.80
2019-01-18T00:39:50.310Z,4.80
2019-01-18T00:42:20.309Z,4.80
2019-01-18T00:44:49.949Z,4.80
2019-01-18T00:47:20.099Z,4.80
2019-01-18T00:49:49.683Z,4.90
2019-01-18T00:52:19.417Z,4.80
2019-01-18T00:54:49.173Z,4.70
2019-01-18T00:57:18.802Z,4.70
2019-01-18T00:59:48.586Z,4.60
2019-01-18T01:02:19.092Z,4.60
2019-01-18T01:04:48.957Z,4.30
2019-01-18T01:07:18.557Z,4.00
2019-01-18T01:09:49.543Z,3.70
2019-01-18T01:12:19.110Z,3.50
2019-01-18T01:14:48.939Z,3.30
2019-01-18T01:17:21.544Z,3.10
2019-01-18T01:19:51.455Z,3.00
2019-01-18T01:22:21.223Z,3.00
2019-01-18T01:24:50.913Z,2.90
2019-01-18T01:27:20.883Z,3.00
2019-01-18T01:29:50.624Z,3.00
2019-01-18T01:32:20.410Z,3.00
2019-01-18T01:34:50.688Z,3.00
2019-01-18T01:37:20.422Z,3.00
2019-01-18T01:39:51.145Z,2.90
2019-01-18T01:42:20.926Z,2.90
2019-01-18T01:44:50.593Z,2.90
2019-01-18T01:47:20.299Z,3.00
2019-01-18T01:49:50.031Z,3.00
2019-01-18T01:52:19.942Z,3.00
2019-01-18T01:54:50.836Z,3.00
2019-01-18T01:57:20.514Z,3.10
2019-01-18T01:59:50.447Z,3.20
2019-01-18T02:02:20.117Z,3.20
2019-01-18T02:04:49.914Z,3.20
2019-01-18T02:07:19.641Z,3.10
2019-01-18T02:09:49.512Z,3.10
2019-01-18T02:12:19.140Z,3.10
2019-01-18T02:14:48.927Z,3.10
2019-01-18T02:17:18.770Z,3.20
2019-01-18T02:19:48.498Z,3.10
2019-01-18T02:22:18.065Z,3.10
2019-01-18T02:24:47.967Z,3.00
2019-01-18T02:27:17.705Z,3.00
2019-01-18T02:29:47.256Z,3.10
2019-01-18T02:32:17.091Z,3.00
2019-01-18T02:34:47.295Z,3.00
2019-01-18T02:37:17.037Z,3.00
2019-01-18T02:39:46.692Z,3.00
2019-01-18T02:42:16.526Z,3.00
2019-01-18T02:44:46.134Z,3.00
2019-01-18T02:47:16.437Z,3.00
2019-01-18T02:49:46.232Z,3.00
2019-01-18T02:52:16.004Z,3.00
2019-01-18T02:54:45.656Z,2.90
2019-01-18T02:57:15.248Z,2.90
2019-01-18T02:59:45.244Z,2.90
2019-01-18T03:02:15.007Z,2.90
2019-01-18T03:04:44.780Z,2.90
2019-01-18T03:07:14.476Z,2.90
2019-01-18T03:09:44.273Z,2.90
2019-01-18T03:12:13.900Z,2.80
2019-01-18T03:14:43.548Z,2.80
2019-01-18T03:17:15.886Z,2.80
2019-01-18T03:19:58.323Z,2.60
2019-01-18T03:22:28.134Z,2.60
2019-01-18T03:24:57.828Z,2.70
2019-01-18T03:27:27.651Z,2.60
2019-01-18T03:29:57.235Z,2.50
2019-01-18T03:32:27.276Z,2.50
2019-01-18T03:34:56.892Z,2.50
2019-01-18T03:37:26.745Z,2.50
2019-01-18T03:39:56.572Z,2.50
2019-01-18T03:42:26.379Z,2.50
2019-01-18T03:44:55.979Z,2.50
2019-01-18T03:47:25.736Z,2.50
2019-01-18T03:49:55.344Z,2.40
2019-01-18T03:52:26.121Z,2.30
2019-01-18T03:54:55.758Z,2.40
2019-01-18T03:57:25.386Z,2.40
2019-01-18T03:59:55.030Z,2.40
2019-01-18T04:02:24.776Z,2.40
2019-01-18T04:04:54.429Z,2.50
2019-01-18T04:07:24.354Z,2.60
2019-01-18T04:09:54.275Z,2.60
2019-01-18T04:12:24.177Z,2.70
2019-01-18T04:14:54.083Z,2.70
2019-01-18T04:17:23.775Z,2.70
2019-01-18T04:19:53.859Z,2.70
2019-01-18T04:22:23.566Z,2.70
2019-01-18T04:24:53.286Z,2.70
2019-01-18T04:27:23.394Z,2.70
2019-01-18T04:29:53.117Z,2.70
2019-01-18T04:32:23.052Z,2.70
2019-01-18T04:34:52.751Z,2.60
2019-01-18T04:37:22.509Z,2.50
2019-01-18T04:39:52.299Z,2.50
2019-01-18T04:42:22.016Z,2.50
2019-01-18T04:44:51.732Z,2.50
2019-01-18T04:47:21.836Z,2.50
2019-01-18T04:49:51.521Z,2.60
2019-01-18T04:52:21.179Z,2.60
2019-01-18T04:54:51.028Z,2.50
2019-01-18T04:57:20.785Z,2.50
2019-01-18T04:59:50.610Z,2.50
2019-01-18T05:02:20.330Z,2.50
2019-01-18T05:04:50.173Z,2.50
2019-01-18T05:07:19.842Z,2.50
2019-01-18T05:09:49.639Z,2.50
2019-01-18T05:12:19.936Z,2.50
2019-01-18T05:14:50.103Z,2.60
2019-01-18T05:17:19.761Z,2.50
2019-01-18T05:19:49.636Z,2.50
2019-01-18T05:22:19.929Z,2.50
2019-01-18T05:24:49.735Z,2.50
2019-01-18T05:27:19.448Z,2.50
2019-01-18T05:29:49.240Z,2.50
2019-01-18T05:32:19.177Z,2.60
2019-01-18T05:34:48.764Z,2.60
2019-01-18T05:37:18.569Z,2.60
2019-01-18T05:39:48.567Z,2.50
2019-01-18T05:42:18.343Z,2.60
2019-01-18T05:44:48.081Z,2.60
2019-01-18T05:47:17.703Z,2.70
2019-01-18T05:49:47.998Z,2.60
2019-01-18T05:52:17.859Z,2.70
2019-01-18T05:54:47.572Z,2.60
2019-01-18T05:57:17.399Z,2.70
2019-01-18T05:59:47.203Z,2.70
2019-01-18T06:02:16.812Z,2.70
2019-01-18T06:04:47.765Z,2.70
2019-01-18T06:07:17.545Z,2.70
2019-01-18T06:09:47.475Z,2.60
2019-01-18T06:12:17.307Z,2.70
2019-01-18T06:14:46.962Z,2.70
2019-01-18T06:17:16.856Z,2.70
2019-01-18T06:19:46.543Z,2.70
2019-01-18T06:22:16.455Z,2.70
2019-01-18T06:24:46.082Z,2.60
2019-01-18T06:27:15.808Z,2.60
2019-01-18T06:29:46.524Z,2.60
2019-01-18T06:32:16.243Z,2.60
2019-01-18T06:34:45.937Z,2.50
2019-01-18T06:37:15.541Z,2.50
2019-01-18T06:39:45.379Z,2.60
2019-01-18T06:42:15.081Z,2.50
2019-01-18T06:44:44.880Z,2.60
2019-01-18T06:47:14.669Z,2.60
2019-01-18T06:49:44.760Z,2.60
2019-01-18T06:52:14.628Z,2.70
2019-01-18T06:54:44.484Z,2.70
2019-01-18T06:57:14.291Z,2.80
2019-01-18T06:59:45.266Z,2.80
2019-01-18T07:02:15.096Z,2.80
2019-01-18T07:04:44.902Z,2.80
2019-01-18T07:07:14.616Z,2.80
2019-01-18T07:09:44.535Z,2.80
2019-01-18T07:12:14.503Z,2.80
2019-01-18T07:14:44.335Z,2.80
2019-01-18T07:17:14.012Z,2.80
2019-01-18T07:19:44.129Z,2.90
2019-01-18T07:22:13.943Z,2.90
2019-01-18T07:24:43.824Z,2.90
2019-01-18T07:27:13.564Z,2.80
2019-01-18T07:29:43.657Z,3.00
2019-01-18T07:32:14.699Z,3.00
2019-01-18T07:34:44.643Z,3.00
2019-01-18T07:37:14.269Z,3.00
2019-01-18T07:39:44.329Z,3.00
2019-01-18T07:42:14.253Z,3.00
2019-01-18T07:44:43.988Z,3.10
2019-01-18T07:47:13.842Z,3.10
2019-01-18T07:49:43.838Z,3.10
2019-01-18T07:52:13.660Z,3.10
2019-01-18T07:54:43.322Z,3.10
2019-01-18T07:57:13.307Z,3.10
2019-01-18T07:59:43.510Z,3.10
2019-01-18T08:02:13.967Z,3.10
2019-01-18T08:04:43.830Z,3.10
2019-01-18T08:07:13.508Z,3.20
2019-01-18T08:09:43.574Z,3.30
2019-01-18T08:12:13.547Z,3.40
2019-01-18T08:14:43.336Z,3.40
2019-01-18T08:17:12.987Z,3.50
2019-01-18T08:19:42.865Z,3.70
2019-01-18T08:22:12.583Z,3.80
2019-01-18T08:24:42.385Z,3.80
2019-01-18T08:27:11.903Z,3.80
2019-01-18T08:29:41.615Z,3.80
2019-01-18T08:32:11.512Z,3.90
2019-01-18T08:34:41.182Z,4.00
2019-01-18T08:37:11.001Z,4.10
2019-01-18T08:39:41.210Z,4.10
2019-01-18T08:42:11.015Z,4.00
2019-01-18T08:44:40.648Z,4.00
2019-01-18T08:47:10.563Z,4.10
2019-01-18T08:49:41.220Z,4.10
2019-01-18T08:52:11.156Z,4.20
2019-01-18T08:54:40.844Z,4.30
2019-01-18T08:57:10.513Z,4.30
2019-01-18T08:59:40.264Z,4.30
2019-01-18T09:02:09.863Z,4.40
2019-01-18T09:04:39.690Z,4.40
2019-01-18T09:07:09.302Z,4.50
2019-01-18T09:09:39.251Z,4.40
2019-01-18T09:12:09.189Z,4.50
2019-01-18T09:14:40.013Z,4.50
2019-01-18T09:17:09.936Z,4.60
2019-01-18T09:19:39.793Z,4.40
2019-01-18T09:22:09.421Z,4.50
2019-01-18T09:24:39.182Z,4.50
2019-01-18T09:27:09.340Z,4.50
2019-01-18T09:29:39.359Z,4.40
2019-01-18T09:32:09.260Z,4.40
2019-01-18T09:34:38.888Z,4.40
2019-01-18T09:37:08.850Z,4.40
2019-01-18T09:39:38.682Z,4.50
2019-01-18T09:42:08.427Z,4.50
2019-01-18T09:44:38.397Z,4.40
2019-01-18T09:47:08.227Z,4.50
2019-01-18T09:49:38.155Z,4.60
2019-01-18T09:52:08.957Z,4.60
2019-01-18T09:54:39.529Z,4.50
2019-01-18T09:57:09.202Z,4.50
2019-01-18T09:59:40.009Z,4.40
2019-01-18T10:02:09.778Z,4.30
2019-01-18T10:04:39.505Z,4.30
2019-01-18T10:07:09.591Z,4.20
2019-01-18T10:09:39.305Z,4.20
2019-01-18T10:12:09.146Z,4.30
2019-01-18T10:14:39.060Z,4.30
2019-01-18T10:17:08.844Z,4.30
2019-01-18T10:19:38.674Z,4.40
2019-01-18T10:22:08.647Z,4.40
2019-01-18T10:24:38.490Z,4.60
2019-01-18T10:27:08.264Z,4.70
2019-01-18T10:29:37.919Z,4.90
2019-01-18T10:32:10.103Z,5.00
2019-01-18T10:34:40.033Z,5.20
2019-01-18T10:37:11.238Z,5.30
2019-01-18T10:39:41.673Z,5.40
2019-01-18T10:42:11.495Z,5.60
2019-01-18T10:44:41.433Z,5.70
2019-01-18T10:47:11.320Z,5.80
2019-01-18T10:49:41.092Z,6.10
2019-01-18T10:52:10.952Z,6.30
2019-01-18T10:54:40.715Z,6.60
2019-01-18T10:57:10.464Z,6.80
2019-01-18T10:59:40.384Z,6.80
2019-01-18T11:02:10.087Z,7.00
2019-01-18T11:04:40.212Z,6.90
2019-01-18T11:07:10.023Z,6.90
2019-01-18T11:09:39.932Z,6.70
2019-01-18T11:12:09.863Z,6.60
2019-01-18T11:14:39.680Z,6.50
2019-01-18T11:17:09.378Z,6.30
2019-01-18T11:19:39.223Z,6.30
2019-01-18T11:22:09.500Z,6.30
2019-01-18T11:24:39.452Z,6.10
2019-01-18T11:27:09.180Z,5.80
2019-01-18T11:29:38.883Z,5.50
2019-01-18T11:32:13.681Z,5.40
2019-01-18T11:34:40.091Z,5.30
2019-01-18T11:37:10.062Z,5.30
2019-01-18T11:39:39.945Z,5.10
2019-01-18T11:42:09.827Z,5.30
2019-01-18T11:44:39.662Z,5.30
2019-01-18T11:47:10.608Z,5.50
2019-01-18T11:49:41.429Z,5.50
2019-01-18T11:52:11.118Z,5.70
2019-01-18T11:54:44.062Z,5.70
2019-01-18T11:57:12.377Z,5.70
2019-01-18T11:59:42.205Z,5.80
2019-01-18T12:02:16.196Z,5.90
2019-01-18T12:04:43.553Z,5.90
2019-01-18T12:07:13.405Z,5.90
2019-01-18T12:09:43.113Z,6.00
2019-01-18T12:12:13.293Z,5.90
2019-01-18T12:14:43.003Z,5.90
2019-01-18T12:17:13.866Z,5.80
2019-01-18T12:19:43.449Z,5.80
2019-01-18T12:22:13.305Z,5.80
2019-01-18T12:24:43.383Z,5.40
2019-01-18T12:27:13.336Z,5.30
2019-01-18T12:29:43.214Z,5.30
2019-01-18T12:32:13.073Z,5.30
2019-01-18T12:34:43.120Z,5.30
2019-01-18T12:37:13.270Z,5.50
2019-01-18T12:39:43.059Z,5.30
2019-01-18T12:42:13.041Z,5.50
2019-01-18T12:44:42.957Z,5.20
2019-01-18T12:47:12.856Z,5.10
2019-01-18T12:49:43.441Z,4.90
2019-01-18T12:52:13.090Z,5.00
2019-01-18T12:54:43.075Z,5.00
2019-01-18T12:57:13.019Z,5.10
2019-01-18T12:59:42.937Z,5.10
2019-01-18T13:02:12.896Z,5.10
2019-01-18T13:04:43.482Z,5.00
2019-01-18T13:07:13.376Z,5.00
2019-01-18T13:09:43.270Z,5.00
2019-01-18T13:12:13.143Z,5.00
2019-01-18T13:14:43.037Z,4.90
2019-01-18T13:17:12.858Z,4.90
2019-01-18T13:19:42.842Z,4.80
2019-01-18T13:22:12.681Z,4.70
2019-01-18T13:24:42.573Z,4.70
2019-01-18T13:27:12.508Z,4.80
2019-01-18T13:29:42.570Z,4.80
2019-01-18T13:32:12.316Z,4.80
2019-01-18T13:34:42.222Z,4.70
2019-01-18T13:37:12.262Z,4.50
2019-01-18T13:39:42.183Z,4.50
2019-01-18T13:42:12.084Z,4.50
2019-01-18T13:44:43.730Z,4.60
2019-01-18T13:47:18.223Z,4.60
2019-01-18T13:49:45.948Z,4.60
2019-01-18T13:52:15.850Z,4.70
2019-01-18T13:54:45.767Z,4.60
2019-01-18T13:57:15.720Z,4.50
2019-01-18T13:59:45.622Z,4.50
2019-01-18T14:02:15.436Z,4.60
2019-01-18T14:04:45.478Z,4.60
2019-01-18T14:07:15.182Z,4.70
2019-01-18T14:09:45.067Z,4.60
2019-01-18T14:12:14.940Z,4.40
2019-01-18T14:14:44.799Z,4.30
2019-01-18T14:17:14.740Z,4.20
2019-01-18T14:19:45.038Z,4.30
2019-01-18T14:22:14.803Z,4.20
2019-01-18T14:24:44.530Z,4.10
2019-01-18T14:27:14.354Z,4.00
2019-01-18T14:29:44.041Z,4.00
2019-01-18T14:32:13.692Z,4.00
2019-01-18T14:34:43.567Z,3.90
2019-01-18T14:37:13.658Z,3.80
2019-01-18T14:39:43.613Z,3.80
2019-01-18T14:42:13.595Z,3.80
2019-01-18T14:44:43.361Z,3.80
2019-01-18T14:47:13.239Z,3.70
2019-01-18T14:49:43.076Z,3.70
2019-01-18T14:52:12.890Z,3.70
2019-01-18T14:54:42.797Z,3.70
2019-01-18T14:57:12.719Z,3.60
2019-01-18T14:59:42.748Z,3.50
2019-01-18T15:02:12.838Z,3.30
2019-01-18T15:04:45.327Z,3.20
2019-01-18T15:07:15.152Z,3.30
2019-01-18T15:09:45.131Z,3.10
2019-01-18T15:12:14.974Z,3.00
2019-01-18T15:14:44.992Z,3.00
2019-01-18T15:17:16.047Z,3.00
2019-01-18T15:19:46.234Z,2.90
2019-01-18T15:22:16.139Z,2.80
2019-01-18T15:24:45.938Z,2.80
2019-01-18T15:27:16.837Z,2.80
2019-01-18T15:29:46.452Z,2.70
2019-01-18T15:32:16.402Z,2.70
2019-01-18T15:34:46.236Z,2.70
2019-01-18T15:37:16.367Z,2.70
2019-01-18T15:39:51.416Z,2.70
2019-01-18T15:42:21.428Z,2.60
2019-01-18T15:44:51.315Z,2.50
2019-01-18T15:47:21.161Z,2.50
2019-01-18T15:49:51.080Z,2.40
2019-01-18T15:52:20.948Z,2.40
2019-01-18T15:54:51.116Z,2.40
2019-01-18T15:57:20.890Z,2.40
2019-01-18T15:59:50.634Z,2.40
2019-01-18T16:02:20.609Z,2.40
2019-01-18T16:04:51.285Z,2.30
2019-01-18T16:07:22.924Z,2.20
2019-01-18T16:09:52.813Z,2.20
2019-01-18T16:12:22.767Z,2.10
2019-01-18T16:14:52.565Z,2.10
2019-01-18T16:17:26.232Z,2.00
2019-01-18T16:19:55.954Z,2.00
2019-01-18T16:22:25.740Z,2.10
2019-01-18T16:24:55.599Z,2.10
2019-01-18T16:27:25.472Z,2.00
2019-01-18T16:29:55.234Z,1.90
2019-01-18T16:32:24.947Z,1.90
2019-01-18T16:34:55.034Z,1.80
2019-01-18T16:37:24.871Z,1.80
2019-01-18T16:39:54.627Z,1.90
2019-01-18T16:42:25.225Z,1.70
2019-01-18T16:44:55.026Z,1.70
2019-01-18T16:47:24.858Z,1.70
2019-01-18T16:49:54.693Z,1.70
2019-01-18T16:52:24.583Z,1.60
2019-01-18T16:57:16.686Z,1.60
2019-01-18T16:59:46.427Z,1.50
2019-01-18T17:02:16.238Z,1.40
2019-01-18T17:04:46.091Z,1.50
2019-01-18T17:07:16.580Z,1.50
2019-01-18T17:09:46.505Z,1.40
2019-01-18T17:12:16.216Z,1.30
2019-01-18T17:14:46.060Z,1.40
2019-01-18T17:17:15.841Z,1.30
2019-01-18T17:19:45.711Z,1.30
2019-01-18T17:22:15.345Z,1.20
2019-01-18T17:24:45.052Z,1.20
2019-01-18T17:27:14.842Z,1.30
2019-01-18T17:29:44.548Z,1.30
2019-01-18T17:32:14.285Z,1.20
2019-01-18T17:34:43.935Z,1.30
2019-01-18T17:37:21.331Z,1.30
2019-01-18T17:40:27.804Z,1.20
2019-01-18T17:43:43.427Z,1.30
2019-01-18T17:46:37.839Z,1.30
2019-01-18T17:49:44.098Z,1.20
2019-01-18T17:52:54.561Z,1.10
2019-01-18T17:56:20.354Z,1.10
2019-01-18T17:59:06.257Z,1.10
2019-01-18T18:02:25.763Z,1.00
2019-01-18T18:05:52.035Z,1.10
2019-01-18T18:09:01.182Z,1.10
2019-01-18T18:11:38.919Z,0.90
2019-01-18T18:14:52.416Z,0.90
2019-01-18T18:17:56.784Z,0.90
2019-01-18T18:20:58.554Z,1.00
2019-01-18T18:24:15.275Z,1.00
2019-01-18T18:27:05.098Z,1.00
2019-01-18T18:30:06.544Z,1.00
2019-01-18T18:33:19.890Z,0.90
2019-01-18T18:36:21.226Z,0.90
2019-01-18T18:39:43.844Z,0.80
2019-01-18T18:42:53.568Z,0.70
2019-01-18T18:45:44.433Z,0.80
2019-01-18T18:48:54.517Z,0.60
2019-01-18T18:52:11.275Z,0.60
2019-01-18T18:55:17.188Z,0.60
2019-01-18T18:58:24.231Z,0.40
2019-01-18T19:01:11.486Z,0.60
2019-01-18T19:04:37.430Z,0.50
2019-01-18T19:07:39.047Z,0.60
2019-01-18T19:10:34.316Z,0.60
2019-01-18T19:13:45.297Z,0.60
2019-01-18T19:16:56.103Z,0.60
2019-01-18T19:20:08.389Z,0.60
2019-01-18T19:22:52.724Z,0.70
2019-01-18T19:25:51.738Z,0.60
2019-01-18T19:29:07.202Z,0.50
2019-01-18T19:32:20.931Z,0.30
2019-01-18T19:35:30.680Z,0.40
2019-01-18T19:38:47.496Z,0.20
2019-01-18T19:42:06.800Z,0.40
2019-01-18T19:45:27.587Z,0.30
2019-01-18T19:48:38.681Z,0.20
2019-01-18T19:52:01.433Z,0.30
2019-01-18T19:54:38.624Z,0.20
2019-01-18T19:57:50.499Z,0.10
2019-01-18T20:01:07.159Z,0.20
2019-01-18T20:04:11.460Z,0.20
2019-01-18T20:06:58.841Z,0.20
2019-01-18T20:09:53.025Z,0.20
2019-01-18T20:12:59.051Z,0.10
2019-01-18T20:15:53.849Z,0.20
2019-01-18T20:19:15.785Z,0.10
2019-01-18T20:22:26.623Z,0.10
2019-01-18T20:25:23.740Z,0.20
2019-01-18T20:28:37.834Z,0.20
2019-01-18T20:31:13.127Z,0.10
2019-01-18T20:34:18.186Z,0.00
2019-01-18T20:36:54.060Z,-0.10
2019-01-18T20:39:54.869Z,0.00
2019-01-18T20:43:13.907Z,0.00
2019-01-18T20:46:52.453Z,0.00
2019-01-18T20:49:58.148Z,-0.20
2019-01-18T20:52:49.256Z,-0.30
2019-01-18T20:55:45.815Z,-0.10
2019-01-18T20:58:43.046Z,-0.10
2019-01-18T21:02:08.675Z,-0.30
2019-01-18T21:05:16.032Z,-0.10
2019-01-18T21:08:09.623Z,-0.20
2019-01-18T21:10:48.695Z,-0.20
2019-01-18T21:13:31.468Z,-0.30
2019-01-18T21:16:45.786Z,-0.30
2019-01-18T21:19:36.284Z,-0.40
2019-01-18T21:22:49.559Z,-0.30
2019-01-18T21:25:59.539Z,-0.30
2019-01-18T21:29:01.240Z,-0.40
2019-01-18T21:32:23.047Z,-0.30
2019-01-18T21:35:35.736Z,-0.50
2019-01-18T21:39:09.916Z,-0.40
2019-01-18T21:42:35.066Z,-0.40
2019-01-18T21:45:48.711Z,-0.40
2019-01-18T21:49:20.509Z,-0.30
2019-01-18T21:52:28.440Z,-0.30
2019-01-18T21:55:23.236Z,-0.50
2019-01-18T21:58:47.600Z,-0.40
2019-01-18T22:02:05.659Z,-0.50
2019-01-18T22:05:08.834Z,-0.70
2019-01-18T22:08:01.153Z,-0.70
2019-01-18T22:11:03.250Z,-0.70
2019-01-18T22:13:58.343Z,-0.90
2019-01-18T22:17:06.624Z,-0.90
2019-01-18T22:20:14.876Z,-0.90
2019-01-18T22:23:11.622Z,-0.90
2019-01-18T22:26:10.139Z,-0.80
2019-01-18T22:29:16.759Z,-0.60
2019-01-18T22:32:39.201Z,-0.70
2019-01-18T22:35:44.156Z,-0.70
2019-01-18T22:38:52.984Z,-0.90
2019-01-18T22:42:11.396Z,-0.80
2019-01-18T22:45:25.146Z,-1.00
2019-01-18T22:48:33.199Z,-0.90
2019-01-18T22:51:26.826Z,-1.10
2019-01-18T22:54:43.195Z,-1.10
2019-01-18T22:57:43.047Z,-1.10
2019-01-18T23:01:16.969Z,-1.20
2019-01-18T23:04:24.537Z,-1.30
2019-01-18T23:07:13.759Z,-1.30
2019-01-18T23:10:43.304Z,-1.20
2019-01-18T23:13:34.076Z,-1.30
2019-01-18T23:16:29.801Z,-1.20
2019-01-18T23:19:25.474Z,-1.20
2019-01-18T23:22:45.251Z,-1.00
2019-01-18T23:25:59.415Z,-1.00
2019-01-18T23:29:21.081Z,-1.00
2019-01-18T23:32:27.407Z,-1.30
2019-01-18T23:35:23.479Z,-1.20
2019-01-18T23:38:21.345Z,-1.20
2019-01-18T23:41:44.150Z,-1.10
2019-01-18T23:44:47.597Z,-1.10
2019-01-18T23:47:57.623Z,-1.00
2019-01-18T23:50:39.103Z,-1.20
2019-01-18T23:53:44.136Z,-1.10
2019-01-18T23:56:29.283Z,-1.10
2019-01-18T23:59:18.630Z,-1.20
